Aviation Digital Data Service (ADDS)

Output produced by METARs form (0050 UTC 17 July 2019)
found at http://www.aviationweather.gov/metar/data/
 
TAF HDAM 162300Z 1700/1724 00000KT 9999 SCT133 
     BECMG 1706/1712 27010G15KT 6000 HZ/BLDU SCT133 
     BECMG 1715/1718 VRB05KT SKC